Time;durP1;ratioP1;P1;durP2;ratioP2;P2;SDS_P1;SDS_P2;PMS_P1;PMS_P2;Temp;Humidity;BMP_temperature;BMP_pressure;BME280_temperature;BME280_humidity;BME280_pressure;Samples;Min_cycle;Max_cycle;Signal;HPM_P1;HPM_P2
2022/01/27 00:05:40;;;;;;;7.30;6.53;;;16.00;55.30;16.80;102109.00;;;;5047231;28;20625;-47
2022/01/27 00:13:17;;;;;;;7.17;6.43;;;15.90;55.30;16.70;102105.00;;;;5034835;28;20677;-48
2022/01/27 00:15:46;;;;;;;7.07;6.37;;;15.90;55.30;16.70;102102.00;;;;5026589;28;20632;-48
2022/01/27 00:18:15;;;;;;;7.13;6.40;;;15.80;55.30;16.70;102099.00;;;;5030141;28;20187;-47
2022/01/27 00:20:41;;;;;;;6.73;6.07;;;15.80;55.40;16.70;102089.00;;;;5029446;28;20316;-48
2022/01/27 00:23:07;;;;;;;7.73;6.70;;;15.70;55.30;16.70;102084.00;;;;5029098;28;20812;-47
2022/01/27 00:25:33;;;;;;;6.83;6.13;;;15.80;55.40;16.70;102095.00;;;;5030253;28;20182;-48
2022/01/27 00:27:58;;;;;;;7.17;6.37;;;15.70;55.30;16.60;102086.00;;;;5030389;28;20197;-48
2022/01/27 00:30:24;;;;;;;7.13;6.43;;;15.70;56.00;16.60;102102.00;;;;5029933;28;20182;-48
2022/01/27 00:32:50;;;;;;;6.97;6.27;;;15.70;55.30;16.60;102094.00;;;;5030304;28;20178;-48
2022/01/27 00:35:16;;;;;;;6.30;5.70;;;15.60;55.40;16.60;102104.00;;;;5029569;28;20259;-48
2022/01/27 00:37:41;;;;;;;6.33;5.80;;;15.60;55.60;16.60;102102.00;;;;5029987;28;20252;-48
2022/01/27 00:40:11;;;;;;;6.73;6.13;;;15.60;55.70;16.50;102099.00;;;;5029480;28;20207;-48
2022/01/27 00:42:41;;;;;;;6.87;6.27;;;15.60;55.70;16.50;102095.00;;;;5029779;28;20225;-47
2022/01/27 00:45:08;;;;;;;6.80;6.20;;;15.60;55.60;16.50;102061.00;;;;5029706;28;20163;-48
2022/01/27 00:47:34;;;;;;;7.17;6.50;;;15.50;55.50;16.50;102095.00;;;;5029723;28;20273;-47
2022/01/27 00:50:00;;;;;;;7.00;6.30;;;15.50;55.10;16.50;102103.00;;;;5029536;28;20194;-49
2022/01/27 00:52:36;;;;;;;6.80;6.10;;;15.50;55.10;16.50;102092.00;;;;5030006;28;20175;-48
2022/01/27 00:55:01;;;;;;;7.17;6.50;;;15.50;55.50;16.50;102089.00;;;;5029558;28;20167;-48
2022/01/27 01:00:08;;;;;;;7.37;6.60;;;15.40;55.30;16.50;102079.00;;;;5029496;28;20183;-48
2022/01/27 01:05:53;;;;;;;7.07;6.37;;;15.40;55.10;16.40;102051.00;;;;5028127;28;20194;-47
2022/01/27 01:30:22;;;;;;;8.07;6.73;;;15.20;55.30;16.30;102007.00;;;;5028473;28;20193;-49
2022/01/27 01:35:14;;;;;;;6.03;5.43;;;15.10;55.40;16.20;102011.00;;;;5027606;28;20171;-49
2022/01/27 01:37:41;;;;;;;6.77;6.07;;;15.10;55.50;16.20;101998.00;;;;5028905;28;20291;-47
2022/01/27 01:40:11;;;;;;;6.50;5.90;;;15.10;55.50;16.20;101995.00;;;;5046397;28;20194;-48
2022/01/27 01:42:37;;;;;;;6.73;6.03;;;15.10;55.40;16.20;102003.00;;;;5045910;28;20236;-48
2022/01/27 01:45:08;;;;;;;6.20;5.70;;;15.10;55.50;16.20;102005.00;;;;5034440;28;20163;-48
2022/01/27 01:47:33;;;;;;;6.20;5.60;;;15.00;55.40;16.20;102008.00;;;;5011762;28;20766;-51
2022/01/27 01:49:59;;;;;;;6.33;5.63;;;15.00;55.30;16.20;102011.00;;;;5028831;28;20308;-47
2022/01/27 01:52:25;;;;;;;6.50;5.90;;;15.00;55.30;16.20;102012.00;;;;5028884;28;20194;-48
2022/01/27 01:54:55;;;;;;;6.40;5.80;;;15.00;55.40;16.20;101933.00;;;;5051117;28;20205;-49
2022/01/27 01:57:20;;;;;;;6.30;5.70;;;15.00;55.40;15.90;101990.00;;;;5054255;28;20174;-48
2022/01/27 01:59:46;;;;;;;6.40;5.80;;;15.00;55.50;16.10;102005.00;;;;5036531;28;20176;-48
2022/01/27 02:02:15;;;;;;;5.97;5.47;;;14.90;55.50;16.10;101999.00;;;;5029428;28;20186;-47
2022/01/27 02:04:41;;;;;;;5.90;5.30;;;14.90;55.40;16.10;102000.00;;;;5028612;28;20171;-48
2022/01/27 02:07:16;;;;;;;6.50;5.90;;;14.90;55.40;16.10;102012.00;;;;5028033;28;20178;-48
2022/01/27 02:10:10;;;;;;;5.87;5.37;;;14.90;55.30;16.10;102010.00;;;;5040027;28;20154;-49
2022/01/27 02:18:08;;;;;;;5.97;5.47;;;14.90;55.60;16.00;102007.00;;;;5028064;28;20763;-48
2022/01/27 02:20:38;;;;;;;6.63;6.03;;;14.80;55.50;16.00;101995.00;;;;5026904;28;20187;-49
2022/01/27 02:23:08;;;;;;;6.20;5.60;;;14.80;55.60;16.00;101985.00;;;;5026913;28;20170;-49
2022/01/27 02:25:34;;;;;;;6.53;5.60;;;14.80;55.50;16.00;101979.00;;;;5027757;28;20570;-49
2022/01/27 02:28:00;;;;;;;6.00;5.50;;;14.80;55.50;16.00;101980.00;;;;5026401;28;20685;-48
2022/01/27 02:30:26;;;;;;;5.93;5.33;;;14.80;56.20;16.00;101977.00;;;;5028040;28;20175;-48
2022/01/27 02:32:52;;;;;;;5.67;5.17;;;14.80;55.50;15.90;101973.00;;;;5027866;28;20312;-48
2022/01/27 02:35:19;;;;;;;6.10;5.50;;;14.70;55.60;15.90;101970.00;;;;5027603;28;20182;-49
2022/01/27 02:37:45;;;;;;;6.50;5.90;;;14.70;55.50;15.90;101946.00;;;;5027634;28;20276;-48
2022/01/27 02:40:28;;;;;;;5.40;4.90;;;14.70;55.70;15.90;101945.00;;;;5027586;28;20673;-49
2022/01/27 02:42:54;;;;;;;5.87;5.37;;;14.70;55.70;15.90;101942.00;;;;5026976;28;20167;-48
2022/01/27 02:45:40;;;;;;;6.20;5.60;;;14.70;56.10;15.90;101945.00;;;;5027915;28;20167;-49
2022/01/27 02:48:06;;;;;;;5.60;5.10;;;14.70;56.90;15.90;101952.00;;;;5026698;28;20194;-48
2022/01/27 02:50:31;;;;;;;6.10;5.50;;;14.70;56.60;15.80;101938.00;;;;5027209;28;20670;-48
2022/01/27 02:52:57;;;;;;;6.13;5.53;;;14.60;56.70;15.80;101937.00;;;;5027443;28;20221;-48
2022/01/27 02:55:23;;;;;;;5.93;5.43;;;14.60;56.60;15.80;101932.00;;;;5026305;28;20178;-49
2022/01/27 02:57:49;;;;;;;6.50;5.90;;;14.60;56.60;15.80;101918.00;;;;5028091;28;20256;-48
2022/01/27 03:00:15;;;;;;;6.03;5.47;;;14.60;56.50;15.80;101918.00;;;;5027153;28;20198;-49
2022/01/27 03:02:40;;;;;;;6.20;5.60;;;14.60;56.60;15.80;101930.00;;;;5027406;28;20642;-48
2022/01/27 03:05:06;;;;;;;6.30;5.70;;;14.60;56.50;15.70;101944.00;;;;5038814;28;20190;-49
2022/01/27 03:07:32;;;;;;;6.50;5.90;;;14.50;56.40;15.70;101950.00;;;;5050582;28;20190;-49
2022/01/27 03:09:58;;;;;;;6.00;5.40;;;14.50;56.70;15.70;101915.00;;;;5030588;28;20171;-48
2022/01/27 03:12:26;;;;;;;5.83;5.33;;;14.50;56.40;15.70;101932.00;;;;5026233;28;20721;-49
2022/01/27 03:14:52;;;;;;;6.87;6.17;;;14.50;56.50;15.70;101927.00;;;;5027074;28;20174;-48
2022/01/27 03:17:17;;;;;;;5.60;5.10;;;14.50;56.70;15.70;101918.00;;;;5026129;28;20185;-50
2022/01/27 03:19:43;;;;;;;6.30;5.70;;;14.50;56.70;15.70;101923.00;;;;5026784;28;20598;-48
2022/01/27 03:22:09;;;;;;;6.13;5.53;;;14.40;56.60;15.70;101905.00;;;;5026879;28;20329;-48
2022/01/27 03:24:35;;;;;;;5.73;5.23;;;14.40;56.50;15.70;101905.00;;;;5026995;28;20248;-48
2022/01/27 03:27:01;;;;;;;6.23;5.63;;;14.40;56.50;15.60;101903.00;;;;5026736;28;20217;-48
2022/01/27 03:29:27;;;;;;;6.37;5.60;;;14.40;56.70;15.60;101903.00;;;;5026999;28;20187;-48
2022/01/27 03:31:53;;;;;;;6.03;5.53;;;14.40;56.60;15.60;101911.00;;;;5027125;28;20198;-48
2022/01/27 03:34:19;;;;;;;6.27;5.67;;;14.40;56.40;15.60;101905.00;;;;5025846;28;20222;-48
2022/01/27 03:36:45;;;;;;;6.17;5.57;;;14.40;56.40;15.60;101908.00;;;;5026861;28;20174;-48
2022/01/27 03:39:11;;;;;;;5.70;5.20;;;14.40;56.40;15.60;101899.00;;;;5026625;28;20202;-49
2022/01/27 03:41:38;;;;;;;5.73;5.23;;;14.40;56.40;15.60;101887.00;;;;5027296;28;20212;-47
2022/01/27 03:44:05;;;;;;;5.83;5.27;;;14.40;56.40;15.50;101880.00;;;;5026993;28;20167;-48
2022/01/27 03:46:31;;;;;;;5.60;5.10;;;14.30;56.30;15.50;101870.00;;;;5025419;28;20180;-48
2022/01/27 03:48:56;;;;;;;5.83;5.33;;;14.30;56.30;15.50;101871.00;;;;5026763;28;20186;-47
2022/01/27 03:51:22;;;;;;;6.30;5.70;;;14.30;56.30;15.50;101865.00;;;;5027602;28;20179;-47
2022/01/27 03:53:48;;;;;;;6.03;5.43;;;14.30;56.30;15.50;101864.00;;;;5030889;28;20566;-48
2022/01/27 03:56:13;;;;;;;6.10;5.50;;;14.30;56.30;15.50;101880.00;;;;5030580;28;20202;-48
2022/01/27 03:58:39;;;;;;;5.70;5.20;;;14.30;56.30;15.50;101875.00;;;;5030491;28;20868;-47
2022/01/27 04:01:05;;;;;;;6.00;5.40;;;14.30;56.30;15.50;101860.00;;;;5030468;28;20231;-48
2022/01/27 04:03:36;;;;;;;5.77;5.27;;;14.30;56.30;15.40;101882.00;;;;5030350;28;20221;-48
2022/01/27 04:06:07;;;;;;;5.77;5.17;;;14.30;56.90;15.40;101887.00;;;;5030326;28;20672;-48
2022/01/27 04:08:38;;;;;;;5.67;5.17;;;14.30;56.30;15.40;101881.00;;;;5030518;28;20183;-47
2022/01/27 04:11:08;;;;;;;5.10;4.70;;;14.20;56.20;15.40;101876.00;;;;5030362;28;20186;-48
2022/01/27 04:13:34;;;;;;;5.80;5.30;;;14.20;56.20;15.40;101878.00;;;;5030403;28;20685;-47
2022/01/27 04:15:59;;;;;;;5.77;5.27;;;14.20;56.20;15.40;101877.00;;;;5030499;28;20258;-48
2022/01/27 04:18:25;;;;;;;5.70;5.20;;;14.20;56.20;15.40;101791.00;;;;5029893;28;20203;-47
2022/01/27 04:20:51;;;;;;;5.70;5.20;;;14.20;56.20;15.40;101862.00;;;;5030149;28;20199;-48
2022/01/27 04:23:20;;;;;;;5.50;5.00;;;14.20;56.80;15.30;101861.00;;;;5029245;28;20186;-48
2022/01/27 04:25:46;;;;;;;5.90;5.30;;;14.20;56.20;15.30;101859.00;;;;5028898;28;20687;-48
2022/01/27 04:28:15;;;;;;;14.30;5.30;;;14.10;56.20;15.30;101861.00;;;;5030283;28;20635;-49
2022/01/27 04:30:41;;;;;;;7.47;5.20;;;14.10;56.90;15.30;101856.00;;;;5030207;28;20789;-47
2022/01/27 04:33:07;;;;;;;5.63;5.00;;;14.20;56.70;15.30;101853.00;;;;5035427;28;20242;-48
2022/01/27 04:35:42;;;;;;;5.60;4.90;;;14.10;56.30;15.30;101844.00;;;;5048338;28;20206;-48
2022/01/27 04:48:23;;;;;;;6.93;5.43;;;14.10;56.10;15.20;101837.00;;;;5030147;28;20191;-48
2022/01/27 04:50:50;;;;;;;7.87;5.20;;;14.10;56.10;15.20;101827.00;;;;5028615;28;20174;-47
2022/01/27 04:53:42;;;;;;;6.10;5.50;;;14.10;56.10;15.20;101829.00;;;;5030171;28;20206;-50
2022/01/27 04:56:02;;;;;;;7.47;6.00;;;14.10;56.10;15.20;101832.00;;;;5029526;28;20190;-49
2022/01/27 04:58:32;;;;;;;6.83;6.13;;;14.00;55.80;15.20;101815.00;;;;5029363;28;20704;-48
2022/01/27 05:01:01;;;;;;;6.33;5.70;;;14.00;55.80;15.20;101814.00;;;;5029397;28;20235;-48
2022/01/27 05:03:45;;;;;;;6.33;5.70;;;14.00;55.80;15.20;101809.00;;;;5028430;28;20171;-50
2022/01/27 05:06:11;;;;;;;6.47;5.63;;;14.00;55.90;15.20;101791.00;;;;5028264;28;20182;-49
2022/01/27 05:08:37;;;;;;;6.00;5.40;;;14.00;56.00;15.20;101782.00;;;;5029682;28;20210;-49
2022/01/27 05:11:49;;;;;;;6.67;5.67;;;14.10;56.10;15.20;101782.00;;;;5029539;28;20225;-48
2022/01/27 05:14:02;;;;;;;8.30;6.00;;;14.00;55.90;15.20;101769.00;;;;5023811;28;20283;-48
2022/01/27 05:16:28;;;;;;;6.53;5.57;;;14.00;55.90;15.20;101760.00;;;;5029658;28;20247;-48
2022/01/27 05:18:54;;;;;;;6.40;5.80;;;14.00;56.00;15.10;101754.00;;;;5027688;28;20199;-48
2022/01/27 05:21:20;;;;;;;7.03;5.50;;;14.00;55.90;15.20;101741.00;;;;5029833;28;20203;-47
2022/01/27 05:23:46;;;;;;;6.63;5.77;;;13.90;55.90;15.10;101754.00;;;;5029466;28;20177;-47
2022/01/27 05:26:11;;;;;;;7.27;5.70;;;13.90;56.20;15.10;101754.00;;;;5028931;28;20716;-46
2022/01/27 05:28:37;;;;;;;6.67;5.60;;;13.90;56.40;15.10;101746.00;;;;5029275;28;20234;-48
2022/01/27 05:31:05;;;;;;;8.83;5.67;;;13.90;56.40;15.10;101764.00;;;;5028354;28;20171;-48
2022/01/27 05:33:31;;;;;;;8.43;5.23;;;13.90;56.20;15.10;101751.00;;;;5029083;28;20183;-47
2022/01/27 05:35:57;;;;;;;7.17;5.47;;;13.90;56.30;15.10;101749.00;;;;5029343;28;20178;-47
2022/01/27 05:38:23;;;;;;;5.37;4.87;;;13.90;56.30;15.10;101756.00;;;;5029881;28;20206;-48
2022/01/27 05:40:48;;;;;;;6.77;5.33;;;13.90;56.20;15.10;101750.00;;;;5037138;28;20195;-48
2022/01/27 05:43:14;;;;;;;6.20;5.43;;;13.80;56.20;15.00;101741.00;;;;5049617;28;20167;-48
2022/01/27 05:45:40;;;;;;;5.93;5.27;;;13.80;56.20;15.10;101744.00;;;;5037000;28;20194;-49
2022/01/27 05:48:06;;;;;;;5.90;5.30;;;13.90;56.30;15.00;101741.00;;;;5028493;28;20685;-49
2022/01/27 05:50:31;;;;;;;5.43;4.93;;;13.80;56.20;15.00;101749.00;;;;5036592;28;20182;-47
2022/01/27 05:52:57;;;;;;;6.03;5.43;;;13.80;56.20;15.00;101736.00;;;;5048242;28;20844;-46
2022/01/27 05:55:23;;;;;;;6.27;5.33;;;13.80;56.00;15.00;101726.00;;;;5046968;28;20216;-47
2022/01/27 05:57:49;;;;;;;7.33;5.30;;;13.80;56.00;15.00;101735.00;;;;5047954;28;20217;-47
2022/01/27 06:00:15;;;;;;;5.30;4.70;;;13.80;56.10;15.00;101733.00;;;;5032186;28;20717;-47
2022/01/27 06:02:41;;;;;;;5.20;4.70;;;13.80;56.20;15.00;101736.00;;;;5028213;28;20617;-47
2022/01/27 06:05:07;;;;;;;5.57;5.00;;;13.70;56.00;14.90;101718.00;;;;5026681;28;20171;-48
2022/01/27 06:07:33;;;;;;;8.13;5.10;;;13.80;56.00;14.90;101707.00;;;;5028985;28;20191;-48
2022/01/27 06:09:59;;;;;;;5.50;4.90;;;13.80;56.10;14.90;101709.00;;;;5024288;28;20668;-48
2022/01/27 06:12:24;;;;;;;5.13;4.70;;;13.80;55.90;14.90;101704.00;;;;5028333;28;20179;-48
2022/01/27 06:14:50;;;;;;;5.30;4.80;;;13.80;56.10;14.90;101699.00;;;;5028443;28;20171;-48
2022/01/27 06:17:16;;;;;;;5.20;4.70;;;13.70;56.10;14.90;101684.00;;;;5029007;28;20708;-48
2022/01/27 06:19:45;;;;;;;5.30;4.80;;;13.70;55.90;14.90;101677.00;;;;5028865;28;20171;-47
2022/01/27 06:22:14;;;;;;;4.97;4.47;;;13.80;55.90;14.90;101694.00;;;;5029118;28;20210;-48
2022/01/27 06:24:44;;;;;;;5.27;4.63;;;13.70;56.00;14.90;101690.00;;;;5029281;28;20198;-49
2022/01/27 06:27:10;;;;;;;5.63;4.80;;;13.70;56.00;14.90;101682.00;;;;5029161;28;20257;-48
2022/01/27 06:29:36;;;;;;;5.20;4.70;;;13.70;56.00;14.90;101679.00;;;;5028315;28;20175;-48
2022/01/27 06:32:03;;;;;;;5.07;4.50;;;13.70;56.00;14.90;101673.00;;;;5027798;28;20183;-48
2022/01/27 06:34:29;;;;;;;5.67;5.10;;;13.70;56.50;14.60;101673.00;;;;5028658;28;20174;-48
2022/01/27 06:36:54;;;;;;;4.73;4.30;;;13.60;56.50;14.80;101675.00;;;;5028804;28;20837;-48
2022/01/27 06:39:20;;;;;;;7.90;4.57;;;13.50;56.40;14.80;101677.00;;;;5028627;28;20203;-48
2022/01/27 06:41:47;;;;;;;7.67;4.60;;;13.50;56.80;14.80;101657.00;;;;5028530;28;20665;-47
2022/01/27 06:44:12;;;;;;;5.93;4.30;;;13.60;57.10;14.80;101645.00;;;;5028908;28;20221;-47
2022/01/27 06:46:38;;;;;;;5.63;4.70;;;13.70;56.60;14.80;101652.00;;;;5028117;28;20179;-48
2022/01/27 06:49:04;;;;;;;9.80;4.80;;;13.90;56.50;14.90;101658.00;;;;5028730;28;20274;-48
2022/01/27 06:51:30;;;;;;;8.87;4.90;;;14.20;56.20;14.90;101637.00;;;;5027477;28;20179;-48
2022/01/27 06:53:57;;;;;;;7.43;4.83;;;14.30;56.00;15.00;101642.00;;;;5029055;28;20555;-48
2022/01/27 06:56:23;;;;;;;9.23;4.50;;;14.40;56.00;15.10;101630.00;;;;5028209;28;20175;-48
2022/01/27 06:58:49;;;;;;;6.27;4.43;;;14.60;55.80;15.20;101629.00;;;;5027926;28;20297;-48
2022/01/27 07:01:15;;;;;;;8.80;4.23;;;14.70;55.80;15.20;101633.00;;;;5028138;28;20210;-48
2022/01/27 07:03:40;;;;;;;9.60;4.50;;;14.70;55.60;15.30;101628.00;;;;5027009;28;20604;-48
2022/01/27 07:06:06;;;;;;;5.37;4.20;;;14.70;55.50;15.30;101643.00;;;;5028315;28;20604;-48
2022/01/27 07:08:32;;;;;;;6.03;4.50;;;14.70;55.50;15.40;101643.00;;;;5028564;28;20187;-48
2022/01/27 07:10:58;;;;;;;9.50;4.87;;;14.80;55.40;15.40;101641.00;;;;5028413;28;20193;-48
2022/01/27 07:13:23;;;;;;;7.37;5.10;;;14.80;55.30;15.50;101646.00;;;;5028280;28;20269;-48
2022/01/27 07:15:50;;;;;;;6.77;5.23;;;14.90;55.30;15.50;101643.00;;;;5026587;28;20186;-48
2022/01/27 07:18:16;;;;;;;5.67;4.50;;;14.80;55.10;15.50;101628.00;;;;5023468;28;20211;-48
2022/01/27 07:20:42;;;;;;;5.93;4.60;;;14.90;55.10;15.50;101638.00;;;;5026372;28;20202;-47
2022/01/27 07:23:08;;;;;;;8.40;5.47;;;14.90;55.10;15.60;101631.00;;;;5027679;28;20175;-47
2022/01/27 07:25:34;;;;;;;9.00;5.13;;;15.00;55.10;15.60;101632.00;;;;5027752;28;20179;-48
2022/01/27 07:27:59;;;;;;;7.47;5.10;;;15.00;55.40;15.60;101629.00;;;;5028101;28;20742;-47
2022/01/27 07:30:25;;;;;;;8.37;5.30;;;15.10;55.90;15.70;101632.00;;;;5027606;28;20979;-49
2022/01/27 07:32:51;;;;;;;11.73;5.43;;;15.10;56.20;15.70;101621.00;;;;5028152;28;20633;-49
2022/01/27 07:35:17;;;;;;;9.93;5.43;;;15.20;56.50;15.80;101623.00;;;;5027607;28;20168;-48
2022/01/27 07:37:44;;;;;;;10.83;5.80;;;15.20;57.00;15.80;101624.00;;;;5028049;28;20639;-48
2022/01/27 07:40:11;;;;;;;9.43;5.53;;;15.20;57.00;15.90;101613.00;;;;5027448;28;20221;-49
2022/01/27 07:42:36;;;;;;;25.00;8.77;;;15.30;57.00;15.90;101616.00;;;;5010346;28;20685;-48
2022/01/27 07:45:03;;;;;;;24.23;9.33;;;15.30;57.00;15.90;101606.00;;;;5027782;28;20179;-47
2022/01/27 07:47:29;;;;;;;32.93;11.17;;;15.30;56.90;15.90;101609.00;;;;5027800;28;20194;-46
2022/01/27 07:49:55;;;;;;;25.63;8.87;;;15.30;56.70;16.00;101602.00;;;;5027414;28;20175;-48
2022/01/27 07:52:21;;;;;;;31.17;9.83;;;15.40;56.80;16.00;101601.00;;;;5028266;28;20187;-47
2022/01/27 07:54:47;;;;;;;26.43;10.33;;;15.40;56.90;16.00;101605.00;;;;5029753;28;20217;-47
2022/01/27 07:57:13;;;;;;;26.50;10.03;;;15.40;56.80;16.00;101602.00;;;;5030013;28;20782;-48
2022/01/27 07:59:39;;;;;;;25.60;9.73;;;15.40;56.80;16.00;101595.00;;;;5032462;28;20165;-48
2022/01/27 08:02:05;;;;;;;24.73;10.00;;;15.40;56.80;16.00;101592.00;;;;5031113;28;20203;-49
2022/01/27 08:04:30;;;;;;;25.57;9.30;;;15.40;56.70;16.10;101594.00;;;;5029234;28;20651;-48
2022/01/27 08:07:00;;;;;;;22.53;9.00;;;15.40;56.60;16.10;101583.00;;;;5027234;28;20221;-49
2022/01/27 08:09:26;;;;;;;22.07;9.53;;;15.50;56.60;16.10;101592.00;;;;5025495;28;20733;-48
2022/01/27 08:11:52;;;;;;;19.90;9.10;;;15.50;56.50;16.10;101600.00;;;;5007417;28;20259;-49
2022/01/27 08:14:17;;;;;;;22.00;9.03;;;15.50;57.00;16.10;101591.00;;;;5027087;28;20277;-48
2022/01/27 08:16:43;;;;;;;18.43;8.93;;;15.50;56.30;16.20;101606.00;;;;5026842;28;20186;-48
2022/01/27 08:19:09;;;;;;;22.57;8.80;;;15.50;56.20;16.20;101603.00;;;;5027196;28;20248;-48
2022/01/27 08:21:34;;;;;;;20.03;8.60;;;15.60;56.20;16.20;101593.00;;;;5027669;28;20230;-48
2022/01/27 08:24:00;;;;;;;16.17;8.17;;;15.50;56.10;16.20;101596.00;;;;5026043;28;20171;-49
2022/01/27 08:26:38;;;;;;;14.00;7.93;;;15.50;56.10;16.20;101599.00;;;;5027397;28;20187;-48
2022/01/27 08:29:14;;;;;;;19.93;8.37;;;15.50;56.00;16.20;101604.00;;;;5027807;28;20549;-48
2022/01/27 08:31:59;;;;;;;14.77;8.03;;;15.60;56.00;16.20;101604.00;;;;5026654;28;20178;-48
2022/01/27 08:34:32;;;;;;;17.57;7.60;;;15.60;56.00;16.20;101604.00;;;;5027846;28;20653;-47
2022/01/27 08:36:59;;;;;;;18.83;8.00;;;15.60;55.90;16.30;101622.00;;;;5027288;28;20189;-49
2022/01/27 08:39:25;;;;;;;15.40;7.93;;;15.60;55.90;16.30;101613.00;;;;5030970;28;20720;-47
2022/01/27 08:41:51;;;;;;;13.87;7.17;;;15.60;55.80;16.00;101618.00;;;;5030048;28;20234;-48
2022/01/27 08:44:17;;;;;;;12.50;7.67;;;15.60;55.70;16.30;101606.00;;;;5031422;28;20401;-48
2022/01/27 08:46:42;;;;;;;13.83;7.30;;;15.60;55.70;16.30;101607.00;;;;5031261;28;20171;-48
2022/01/27 08:49:09;;;;;;;12.67;6.97;;;15.60;55.60;16.30;101595.00;;;;5030530;28;20677;-48
2022/01/27 08:51:34;;;;;;;14.33;7.10;;;15.70;55.60;16.30;101603.00;;;;5031351;28;20179;-47
2022/01/27 08:54:00;;;;;;;13.67;7.30;;;15.70;55.70;16.40;101588.00;;;;5030732;28;20317;-48
2022/01/27 08:56:26;;;;;;;13.47;6.70;;;15.70;55.40;16.40;101600.00;;;;5031452;28;20557;-48
2022/01/27 08:58:51;;;;;;;13.20;7.20;;;15.70;55.30;16.40;101601.00;;;;5030050;28;20376;-47
2022/01/27 09:01:17;;;;;;;13.00;6.70;;;15.70;55.30;16.40;101600.00;;;;5030567;28;20222;-49
2022/01/27 09:03:43;;;;;;;10.60;6.80;;;15.70;55.50;16.40;101614.00;;;;5032098;28;20179;-47
2022/01/27 09:06:09;;;;;;;10.27;6.40;;;15.70;55.30;16.40;101616.00;;;;5031660;28;20372;-48
2022/01/27 09:08:34;;;;;;;14.57;7.17;;;15.70;55.30;16.40;101606.00;;;;5029383;28;20187;-48
2022/01/27 09:11:00;;;;;;;12.63;6.63;;;15.70;55.30;16.50;101609.00;;;;5030169;28;20251;-48
2022/01/27 09:13:26;;;;;;;13.97;6.93;;;15.70;55.30;16.50;101594.00;;;;5030505;28;20178;-48
2022/01/27 09:15:51;;;;;;;9.57;6.17;;;15.70;55.30;16.50;101591.00;;;;5030443;28;20186;-47
2022/01/27 09:18:17;;;;;;;8.60;6.07;;;15.80;55.40;16.50;101604.00;;;;5029514;28;20681;-48
2022/01/27 09:20:43;;;;;;;10.13;6.10;;;15.80;55.40;16.50;101597.00;;;;5030181;28;20680;-49
2022/01/27 09:23:13;;;;;;;8.03;5.77;;;15.70;55.30;16.50;101593.00;;;;5030481;28;20190;-48
2022/01/27 09:25:45;;;;;;;9.90;6.13;;;15.80;55.40;16.50;101589.00;;;;5030347;28;20221;-47
2022/01/27 09:28:12;;;;;;;9.87;6.10;;;15.80;55.40;16.50;101588.00;;;;5031518;28;20191;-48
2022/01/27 09:30:37;;;;;;;10.20;6.10;;;15.80;55.40;16.50;101591.00;;;;5030522;28;20185;-48
2022/01/27 09:33:03;;;;;;;7.57;5.43;;;15.80;55.30;16.60;101592.00;;;;5029837;28;20183;-48
2022/01/27 09:35:31;;;;;;;9.00;5.90;;;15.80;55.30;16.60;101588.00;;;;5030273;28;20194;-48
2022/01/27 09:37:57;;;;;;;8.73;5.53;;;15.90;55.40;16.60;101590.00;;;;5030104;28;20289;-46
2022/01/27 09:40:23;;;;;;;9.23;6.20;;;15.90;55.30;16.60;101598.00;;;;5030536;28;20179;-48
2022/01/27 09:42:52;;;;;;;9.47;5.83;;;15.90;55.30;16.60;101598.00;;;;5031713;28;20167;-48
2022/01/27 09:45:18;;;;;;;8.73;5.60;;;15.90;55.20;16.60;101592.00;;;;5029804;28;20622;-49
2022/01/27 09:47:53;;;;;;;8.33;5.50;;;15.90;55.20;16.60;101593.00;;;;5047186;28;20236;-49
2022/01/27 09:50:26;;;;;;;9.40;5.70;;;15.90;55.20;16.60;101587.00;;;;5066906;28;20158;-49
2022/01/27 09:52:52;;;;;;;6.90;5.00;;;15.90;55.20;16.60;101598.00;;;;5031250;28;20151;-48
2022/01/27 09:55:17;;;;;;;7.67;5.40;;;15.90;55.10;16.60;101593.00;;;;5030079;28;20182;-48
2022/01/27 09:57:45;;;;;;;7.00;5.13;;;15.90;55.20;16.60;101600.00;;;;5029539;28;20297;-47
2022/01/27 10:00:14;;;;;;;8.73;4.97;;;15.90;55.20;16.60;101593.00;;;;5027823;28;20608;-48
2022/01/27 10:02:40;;;;;;;7.17;5.30;;;15.90;55.20;16.70;101596.00;;;;5029482;28;20166;-48
2022/01/27 10:05:08;;;;;;;6.87;4.87;;;16.00;55.20;16.70;101585.00;;;;5028290;28;20685;-48
2022/01/27 10:07:45;;;;;;;7.60;5.37;;;15.90;55.10;16.70;101588.00;;;;5029652;28;20424;-48
2022/01/27 10:10:16;;;;;;;7.60;5.20;;;16.00;55.20;16.70;101593.00;;;;5028476;28;20158;-48
2022/01/27 10:12:54;;;;;;;6.70;5.10;;;16.00;55.20;16.70;101595.00;;;;5030183;28;20190;-46
2022/01/27 10:15:21;;;;;;;7.50;5.27;;;16.00;55.10;16.70;101573.00;;;;5029633;28;20163;-47
2022/01/27 10:18:16;;;;;;;6.83;4.90;;;16.00;55.10;16.70;101585.00;;;;5029311;28;20195;-48
2022/01/27 10:20:58;;;;;;;6.47;4.57;;;16.10;55.20;16.70;101585.00;;;;5028765;28;20484;-48
2022/01/27 10:23:28;;;;;;;6.93;4.90;;;16.00;55.10;16.70;101588.00;;;;5029461;28;20577;-49
2022/01/27 10:26:00;;;;;;;6.10;4.73;;;16.00;55.10;16.70;101571.00;;;;5029390;28;20182;-47
2022/01/27 10:28:32;;;;;;;6.33;4.70;;;16.10;55.10;16.80;101564.00;;;;5029426;28;20199;-48
2022/01/27 10:31:12;;;;;;;6.20;4.57;;;16.10;55.10;16.70;101568.00;;;;5029839;28;20241;-49
2022/01/27 10:33:59;;;;;;;6.43;4.77;;;16.10;55.10;16.80;101557.00;;;;5034354;28;20167;-48
2022/01/27 10:36:26;;;;;;;5.93;4.67;;;16.10;55.10;16.80;101562.00;;;;5030252;28;20638;-47
2022/01/27 10:38:56;;;;;;;5.03;4.33;;;16.10;55.10;16.80;101558.00;;;;5029140;28;20194;-48
2022/01/27 10:41:24;;;;;;;5.23;4.00;;;16.10;55.10;16.80;101551.00;;;;5028271;28;20202;-48
2022/01/27 10:44:04;;;;;;;5.13;4.20;;;16.20;55.10;16.80;101559.00;;;;5033287;28;20171;-48
2022/01/27 10:46:30;;;;;;;5.23;4.17;;;16.10;55.00;16.80;101556.00;;;;5034069;28;20151;-48
2022/01/27 10:51:27;;;;;;;4.73;4.00;;;16.10;55.00;16.90;101542.00;;;;5028646;28;20170;-48
2022/01/27 10:54:05;;;;;;;6.10;4.10;;;16.10;55.30;16.90;101557.00;;;;5028863;28;20637;-48
2022/01/27 10:56:37;;;;;;;4.80;4.30;;;16.10;55.30;16.90;101550.00;;;;5029163;28;20229;-47
2022/01/27 10:59:07;;;;;;;5.13;4.13;;;16.10;55.20;16.90;101557.00;;;;5029172;28;20215;-48
2022/01/27 11:01:37;;;;;;;4.77;4.10;;;16.20;55.30;16.90;101551.00;;;;5041860;28;20218;-48
2022/01/27 11:04:09;;;;;;;5.50;4.53;;;16.20;55.20;16.90;101555.00;;;;5019109;28;20193;-48
2022/01/27 11:06:36;;;;;;;6.47;4.37;;;16.20;55.20;16.90;101550.00;;;;5028210;28;20151;-47
2022/01/27 11:09:08;;;;;;;4.97;3.97;;;16.20;55.20;16.90;101541.00;;;;5028397;28;20214;-48
2022/01/27 11:11:36;;;;;;;4.60;4.03;;;16.20;55.20;16.90;101550.00;;;;5028636;28;20552;-48
2022/01/27 11:14:02;;;;;;;4.63;3.90;;;16.20;55.10;16.90;101541.00;;;;5029935;28;20558;-47
2022/01/27 11:16:37;;;;;;;4.60;3.80;;;16.20;55.10;16.90;101542.00;;;;5028261;28;20198;-48
2022/01/27 11:22:28;;;;;;;7.10;3.90;;;16.30;55.30;16.90;101540.00;;;;4965800;28;20259;-47
2022/01/27 11:25:49;;;;;;;4.33;3.87;;;16.30;55.40;17.00;101509.00;;;;4966630;28;20703;-49
2022/01/27 11:27:55;;;;;;;6.47;3.83;;;16.30;55.50;17.00;101524.00;;;;5009867;28;20801;-47
2022/01/27 11:30:48;;;;;;;4.30;3.87;;;16.30;55.60;17.00;101511.00;;;;5006977;28;20171;-48
2022/01/27 11:33:14;;;;;;;7.03;3.90;;;16.30;55.70;17.00;101516.00;;;;5011006;28;20194;-46
2022/01/27 11:35:40;;;;;;;4.93;3.93;;;16.40;55.70;17.00;101517.00;;;;5046370;28;20163;-47
2022/01/27 11:38:08;;;;;;;6.10;3.60;;;16.40;55.50;17.00;101505.00;;;;5046829;28;20208;-48
2022/01/27 11:40:38;;;;;;;4.73;3.77;;;16.40;55.60;17.00;101495.00;;;;5045495;28;20343;-47
2022/01/27 11:43:06;;;;;;;6.73;3.83;;;16.50;55.80;17.10;101502.00;;;;5017082;28;20179;-48
2022/01/27 11:45:38;;;;;;;4.53;3.50;;;16.40;55.60;17.10;101496.00;;;;5027763;28;20225;-47
2022/01/27 11:48:15;;;;;;;4.30;3.50;;;16.40;55.50;17.10;101497.00;;;;5027962;28;20191;-47
2022/01/27 11:50:52;;;;;;;4.17;3.40;;;16.50;55.60;17.10;101501.00;;;;5027218;28;20170;-48